createdAt,value
2022-10-09T00:00:51.019Z,97167.50
2022-10-09T00:03:19.437Z,97168.25
2022-10-09T00:05:47.735Z,97170.50
2022-10-09T00:08:16.005Z,97160.81
2022-10-09T00:10:44.662Z,97170.84
2022-10-09T00:13:13.300Z,97177.72
2022-10-09T00:15:45.804Z,97166.94
2022-10-09T00:18:16.919Z,97161.09
2022-10-09T00:20:46.849Z,97162.47
2022-10-09T00:23:17.412Z,97155.63
2022-10-09T00:25:52.032Z,97156.66
2022-10-09T00:28:20.308Z,97155.78
2022-10-09T00:30:49.951Z,97145.78
2022-10-09T00:33:18.595Z,97154.53
2022-10-09T00:35:47.075Z,97147.41
2022-10-09T00:38:15.710Z,97147.06
2022-10-09T00:40:44.031Z,97155.25
2022-10-09T00:43:16.013Z,97146.94
2022-10-09T00:45:47.779Z,97149.22
2022-10-09T00:48:18.125Z,97139.19
2022-10-09T00:50:49.315Z,97143.06
2022-10-09T00:53:19.520Z,97137.44
2022-10-09T00:55:47.907Z,97136.00
2022-10-09T00:58:16.192Z,97136.06
2022-10-09T01:00:44.418Z,97133.94
2022-10-09T01:03:12.658Z,97129.56
2022-10-09T01:05:46.373Z,97137.38
2022-10-09T01:08:17.858Z,97130.66
2022-10-09T01:10:50.371Z,97126.25
2022-10-09T01:13:24.546Z,97126.59
2022-10-09T01:15:55.521Z,97126.69
2022-10-09T01:18:28.283Z,97117.94
2022-10-09T01:21:01.029Z,97121.84
2022-10-09T01:24:03.058Z,97111.59
2022-10-09T01:26:56.587Z,97121.34
2022-10-09T01:29:25.962Z,97116.75
2022-10-09T01:31:54.244Z,97122.34
2022-10-09T01:34:22.803Z,97124.53
2022-10-09T01:36:51.803Z,97118.19
2022-10-09T01:39:22.845Z,97110.59
2022-10-09T01:41:52.471Z,97108.72
2022-10-09T01:44:23.828Z,97104.13
2022-10-09T01:46:52.365Z,97108.06
2022-10-09T01:49:43.092Z,97098.53
2022-10-09T01:52:17.381Z,97092.50
2022-10-09T01:54:54.503Z,97095.59
2022-10-09T01:57:28.141Z,97088.28
2022-10-09T02:00:00.342Z,97084.47
2022-10-09T02:02:29.247Z,97082.47
2022-10-09T02:04:58.941Z,97085.84
2022-10-09T02:07:27.322Z,97076.00
2022-10-09T02:09:56.479Z,97068.81
2022-10-09T02:12:26.247Z,97068.13
2022-10-09T02:14:55.625Z,97062.00
2022-10-09T02:17:30.934Z,97067.19
2022-10-09T02:20:07.873Z,97070.94
2022-10-09T02:22:37.483Z,97065.16
2022-10-09T02:25:08.380Z,97069.66
2022-10-09T02:27:36.818Z,97067.16
2022-10-09T02:30:07.930Z,97071.91
2022-10-09T02:32:37.669Z,97066.72
2022-10-09T02:35:06.762Z,97066.09
2022-10-09T02:37:35.090Z,97057.34
2022-10-09T02:40:08.278Z,97073.09
2022-10-09T02:42:38.814Z,97056.78
2022-10-09T02:45:08.756Z,97072.25
2022-10-09T02:47:38.449Z,97060.97
2022-10-09T02:50:08.145Z,97054.31
2022-10-09T02:52:36.379Z,97058.75
2022-10-09T02:55:04.978Z,97056.06
2022-10-09T02:57:33.331Z,97053.25
2022-10-09T03:00:01.570Z,97052.88
2022-10-09T03:02:29.989Z,97055.84
2022-10-09T03:04:59.653Z,97054.56
2022-10-09T03:07:27.799Z,97062.94
2022-10-09T03:09:57.241Z,97052.84
2022-10-09T03:12:25.456Z,97047.75
2022-10-09T03:14:53.670Z,97051.38
2022-10-09T03:17:21.839Z,97051.09
2022-10-09T03:19:50.388Z,97054.28
2022-10-09T03:22:20.000Z,97047.50
2022-10-09T03:24:48.198Z,97040.47
2022-10-09T03:27:16.400Z,97047.25
2022-10-09T03:29:44.550Z,97033.28
2022-10-09T03:32:12.826Z,97036.25
2022-10-09T03:37:28.130Z,97032.31
2022-10-09T03:39:56.338Z,97030.59
2022-10-09T03:42:24.872Z,97047.50
2022-10-09T03:44:53.162Z,97043.03
2022-10-09T03:47:21.375Z,97030.91
2022-10-09T03:49:49.594Z,97040.09
2022-10-09T03:52:17.796Z,97033.69
2022-10-09T03:54:47.500Z,97036.19
2022-10-09T03:57:15.762Z,97038.00
2022-10-09T03:59:44.027Z,97041.94
2022-10-09T04:02:12.301Z,97041.66
2022-10-09T04:04:40.575Z,97046.94
2022-10-09T04:07:08.913Z,97047.78
2022-10-09T04:09:37.102Z,97033.81
2022-10-09T04:12:06.923Z,97032.31
2022-10-09T04:14:35.325Z,97039.41
2022-10-09T04:17:03.553Z,97047.50
2022-10-09T04:19:31.799Z,97044.59
2022-10-09T04:22:00.085Z,97031.63
2022-10-09T04:24:28.319Z,97037.72
2022-10-09T04:26:56.890Z,97041.63
2022-10-09T04:29:26.475Z,97042.63
2022-10-09T04:31:54.718Z,97041.28
2022-10-09T04:34:22.967Z,97040.31
2022-10-09T04:36:51.180Z,97034.13
2022-10-09T04:39:19.406Z,97034.09
2022-10-09T04:41:47.622Z,97030.22
2022-10-09T04:44:15.850Z,97029.13
2022-10-09T04:46:45.525Z,97040.19
2022-10-09T04:49:14.393Z,97039.06
2022-10-09T04:51:42.631Z,97042.06
2022-10-09T04:54:11.251Z,97048.13
2022-10-09T04:56:39.732Z,97044.44
2022-10-09T04:59:07.972Z,97039.84
2022-10-09T05:01:38.472Z,97033.44
2022-10-09T05:04:08.326Z,97036.00
2022-10-09T05:06:36.558Z,97032.94
2022-10-09T05:09:05.128Z,97033.25
2022-10-09T05:11:33.374Z,97030.88
2022-10-09T05:14:01.807Z,97031.31
2022-10-09T05:16:37.674Z,97033.03
2022-10-09T05:19:14.558Z,97041.50
2022-10-09T05:21:42.867Z,97042.16
2022-10-09T05:24:11.150Z,97042.41
2022-10-09T05:26:39.359Z,97035.75
2022-10-09T05:29:07.523Z,97036.47
2022-10-09T05:31:35.914Z,97034.34
2022-10-09T05:34:05.099Z,97044.06
2022-10-09T05:36:34.670Z,97033.84
2022-10-09T05:39:02.920Z,97031.75
2022-10-09T05:41:31.207Z,97028.28
2022-10-09T05:44:02.022Z,97027.19
2022-10-09T05:46:30.792Z,97030.47
2022-10-09T05:49:00.260Z,97023.00
2022-10-09T05:51:29.738Z,97018.81
2022-10-09T05:54:01.929Z,97015.19
2022-10-09T05:56:31.668Z,97015.72
2022-10-09T05:59:01.806Z,97019.94
2022-10-09T06:01:31.780Z,97020.09
2022-10-09T06:04:01.219Z,97022.25
2022-10-09T06:06:31.339Z,97021.00
2022-10-09T06:09:01.055Z,97015.44
2022-10-09T06:11:31.725Z,97017.78
2022-10-09T06:13:59.916Z,97020.00
2022-10-09T06:16:30.051Z,97016.22
2022-10-09T06:18:58.918Z,97020.03
2022-10-09T06:21:27.724Z,97022.34
2022-10-09T06:23:57.218Z,97024.16
2022-10-09T06:26:29.191Z,97034.22
2022-10-09T06:28:58.031Z,97028.47
2022-10-09T06:31:27.892Z,97020.25
2022-10-09T06:33:56.559Z,97032.22
2022-10-09T06:36:26.257Z,97028.69
2022-10-09T06:38:54.817Z,97028.97
2022-10-09T06:41:24.886Z,97036.13
2022-10-09T06:43:55.650Z,97033.91
2022-10-09T06:46:25.387Z,97020.94
2022-10-09T06:48:53.588Z,97033.78
2022-10-09T06:51:23.265Z,97031.75
2022-10-09T06:53:53.140Z,97027.41
2022-10-09T06:56:22.956Z,97025.59
2022-10-09T06:58:51.437Z,97027.28
2022-10-09T07:01:24.010Z,97036.50
2022-10-09T07:03:55.145Z,97045.09
2022-10-09T07:06:25.214Z,97045.28
2022-10-09T07:08:55.706Z,97033.31
2022-10-09T07:11:25.620Z,97037.53
2022-10-09T07:13:55.811Z,97039.56
2022-10-09T07:16:28.148Z,97041.34
2022-10-09T07:18:56.833Z,97042.78
2022-10-09T07:21:25.185Z,97042.28
2022-10-09T07:23:54.198Z,97038.06
2022-10-09T07:26:24.222Z,97036.50
2022-10-09T07:28:52.897Z,97040.94
2022-10-09T07:31:21.472Z,97045.16
2022-10-09T07:33:51.813Z,97034.72
2022-10-09T07:36:20.282Z,97038.91
2022-10-09T07:38:52.573Z,97047.38
2022-10-09T07:41:21.575Z,97052.41
2022-10-09T07:43:49.866Z,97053.09
2022-10-09T07:46:21.789Z,97048.34
2022-10-09T07:48:52.288Z,97047.56
2022-10-09T07:51:21.984Z,97045.59
2022-10-09T07:53:50.482Z,97048.94
2022-10-09T07:56:21.046Z,97043.47
2022-10-09T07:58:50.039Z,97046.78
2022-10-09T08:01:20.322Z,97043.34
2022-10-09T08:03:50.875Z,97037.38
2022-10-09T08:06:19.915Z,97030.72
2022-10-09T08:08:50.833Z,97035.06
2022-10-09T08:11:19.765Z,97042.38
2022-10-09T08:13:50.143Z,97035.06
2022-10-09T08:16:19.745Z,97038.00
2022-10-09T08:18:48.050Z,97035.72
2022-10-09T08:21:19.407Z,97032.00
2022-10-09T08:23:47.982Z,97040.84
2022-10-09T08:26:18.410Z,97029.69
2022-10-09T08:28:51.309Z,97034.72
2022-10-09T08:31:19.891Z,97025.06
2022-10-09T08:33:48.334Z,97022.41
2022-10-09T08:36:17.902Z,97022.91
2022-10-09T08:38:47.994Z,97029.38
2022-10-09T08:41:20.410Z,97022.88
2022-10-09T08:43:51.303Z,97031.41
2022-10-09T08:46:23.299Z,97033.38
2022-10-09T08:48:51.770Z,97020.41
2022-10-09T08:51:24.410Z,97015.41
2022-10-09T08:53:57.232Z,97024.22
2022-10-09T08:56:26.541Z,97018.56
2022-10-09T08:58:54.845Z,97013.38
2022-10-09T09:01:30.336Z,97012.25
2022-10-09T09:04:24.953Z,97013.63
2022-10-09T09:07:00.952Z,97002.53
2022-10-09T09:09:38.286Z,97005.72
2022-10-09T09:12:13.689Z,97007.34
2022-10-09T09:14:51.647Z,96997.75
2022-10-09T09:17:24.616Z,97000.69
2022-10-09T09:20:01.239Z,96999.63
2022-10-09T09:22:31.186Z,96989.19
2022-10-09T09:25:00.510Z,96991.19
2022-10-09T09:27:30.296Z,96985.38
2022-10-09T09:30:02.727Z,96978.53
2022-10-09T09:32:32.316Z,96971.81
2022-10-09T09:35:06.622Z,96981.47
2022-10-09T09:37:37.681Z,96976.25
2022-10-09T09:42:57.076Z,96980.84
2022-10-09T09:45:27.057Z,96966.31
2022-10-09T09:47:57.623Z,96964.59
2022-10-09T09:50:47.099Z,96966.69
2022-10-09T09:53:26.792Z,96962.72
2022-10-09T09:55:55.461Z,96955.00
2022-10-09T09:58:24.228Z,96952.56
2022-10-09T10:00:56.193Z,96953.97
2022-10-09T10:03:25.396Z,96958.25
2022-10-09T10:05:53.989Z,96952.09
2022-10-09T10:08:25.914Z,96940.38
2022-10-09T10:10:55.420Z,96948.72
2022-10-09T10:13:25.615Z,96939.31
2022-10-09T10:15:55.574Z,96947.19
2022-10-09T10:18:26.065Z,96951.88
2022-10-09T10:20:56.606Z,96941.00
2022-10-09T10:23:36.754Z,96928.31
2022-10-09T10:26:09.450Z,96929.03
2022-10-09T10:28:46.397Z,96931.31
2022-10-09T10:31:20.721Z,96919.75
2022-10-09T10:33:53.269Z,96924.56
2022-10-09T10:36:21.527Z,96918.38
2022-10-09T10:38:57.460Z,96926.56
2022-10-09T10:41:28.654Z,96921.63
2022-10-09T10:44:00.030Z,96915.78
2022-10-09T10:46:32.049Z,96908.44
2022-10-09T10:49:01.047Z,96910.81
2022-10-09T10:51:46.310Z,96902.59
2022-10-09T10:54:38.589Z,96898.47
2022-10-09T10:57:14.749Z,96910.53
2022-10-09T10:59:48.941Z,96905.25
2022-10-09T11:02:47.340Z,96910.16
2022-10-09T11:05:36.631Z,96899.28
2022-10-09T11:08:19.659Z,96895.47
2022-10-09T11:10:56.640Z,96889.69
2022-10-09T11:13:28.021Z,96901.34
2022-10-09T11:16:04.947Z,96895.19
2022-10-09T11:18:47.016Z,96887.22
2022-10-09T11:21:28.251Z,96878.66
2022-10-09T11:24:16.975Z,96876.72
2022-10-09T11:26:49.872Z,96884.16
2022-10-09T11:29:21.832Z,96870.66
2022-10-09T11:31:53.276Z,96857.28
2022-10-09T11:34:28.107Z,96859.19
2022-10-09T11:36:56.700Z,96854.66
2022-10-09T11:39:27.241Z,96853.25
2022-10-09T11:41:57.103Z,96854.88
2022-10-09T11:44:36.804Z,96854.03
2022-10-09T11:47:10.637Z,96853.19
2022-10-09T11:49:50.358Z,96852.88
2022-10-09T11:52:22.752Z,96843.28
2022-10-09T11:54:51.017Z,96853.03
2022-10-09T11:57:29.428Z,96829.03
2022-10-09T12:00:06.824Z,96831.81
2022-10-09T12:02:35.721Z,96824.56
2022-10-09T12:05:17.505Z,96825.66
2022-10-09T12:07:46.033Z,96823.19
2022-10-09T12:10:24.755Z,96821.00
2022-10-09T12:13:00.345Z,96816.16
2022-10-09T12:15:47.031Z,96817.72
2022-10-09T12:18:17.793Z,96810.28
2022-10-09T12:20:47.077Z,96811.50
2022-10-09T12:23:26.735Z,96808.91
2022-10-09T12:25:56.208Z,96819.22
2022-10-09T12:28:30.145Z,96809.56
2022-10-09T12:31:01.060Z,96804.78
2022-10-09T12:33:34.972Z,96807.72
2022-10-09T12:36:06.997Z,96801.66
2022-10-09T12:38:35.358Z,96808.47
2022-10-09T12:41:07.209Z,96798.84
2022-10-09T12:43:37.400Z,96794.34
2022-10-09T12:46:05.781Z,96803.41
2022-10-09T12:48:38.601Z,96792.84
2022-10-09T12:51:16.194Z,96793.84
2022-10-09T12:53:48.884Z,96800.16
2022-10-09T12:56:22.300Z,96777.59
2022-10-09T12:58:52.298Z,96781.50
2022-10-09T13:01:20.921Z,96770.31
2022-10-09T13:03:57.643Z,96765.16
2022-10-09T13:06:27.611Z,96764.59
2022-10-09T13:08:58.637Z,96766.78
2022-10-09T13:11:32.762Z,96766.75
2022-10-09T13:14:02.946Z,96761.88
2022-10-09T13:16:40.859Z,96754.78
2022-10-09T13:19:22.210Z,96758.25
2022-10-09T13:22:01.723Z,96747.84
2022-10-09T13:24:30.473Z,96748.88
2022-10-09T13:26:58.646Z,96739.97
2022-10-09T13:29:28.446Z,96731.25
2022-10-09T13:31:56.672Z,96738.59
2022-10-09T13:34:25.002Z,96745.72
2022-10-09T13:36:53.274Z,96741.53
2022-10-09T13:39:21.482Z,96737.63
2022-10-09T13:41:50.042Z,96736.41
2022-10-09T13:44:18.271Z,96736.84
2022-10-09T13:46:48.191Z,96735.16
2022-10-09T13:49:16.445Z,96733.03
2022-10-09T13:51:44.672Z,96724.78
2022-10-09T13:54:12.969Z,96724.53
2022-10-09T13:56:41.228Z,96714.63
2022-10-09T13:59:09.452Z,96726.09
2022-10-09T14:01:37.730Z,96715.56
2022-10-09T14:04:07.333Z,96721.19
2022-10-09T14:06:36.923Z,96722.00
2022-10-09T14:09:05.545Z,96719.34
2022-10-09T14:11:34.258Z,96728.19
2022-10-09T14:14:03.097Z,96718.31
2022-10-09T14:16:32.808Z,96721.63
2022-10-09T14:19:02.920Z,96721.38
2022-10-09T14:21:32.776Z,96712.81
2022-10-09T14:24:02.927Z,96719.94
2022-10-09T14:26:31.421Z,96704.81
2022-10-09T14:29:01.761Z,96704.16
2022-10-09T14:31:30.887Z,96706.25
2022-10-09T14:34:00.520Z,96703.25
2022-10-09T14:36:29.646Z,96706.69
2022-10-09T14:39:00.229Z,96701.31
2022-10-09T14:41:28.443Z,96696.78
2022-10-09T14:43:59.292Z,96703.72
2022-10-09T14:46:28.835Z,96695.06
2022-10-09T14:48:57.858Z,96684.25
2022-10-09T14:51:28.059Z,96686.91
2022-10-09T14:53:59.032Z,96677.47
2022-10-09T14:56:28.139Z,96685.38
2022-10-09T14:58:57.860Z,96676.25
2022-10-09T15:01:28.883Z,96684.56
2022-10-09T15:03:57.171Z,96675.16
2022-10-09T15:06:25.433Z,96670.56
2022-10-09T15:08:57.146Z,96664.69
2022-10-09T15:11:29.390Z,96659.47
2022-10-09T15:13:57.888Z,96655.41
2022-10-09T15:16:26.247Z,96662.81
2022-10-09T15:18:55.703Z,96649.78
2022-10-09T15:21:25.999Z,96649.03
2022-10-09T15:23:55.023Z,96640.09
2022-10-09T15:26:23.741Z,96642.75
2022-10-09T15:28:53.362Z,96643.00
2022-10-09T15:31:24.360Z,96636.31
2022-10-09T15:33:53.237Z,96631.72
2022-10-09T15:36:21.728Z,96632.03
2022-10-09T15:38:50.544Z,96643.53
2022-10-09T15:41:23.191Z,96654.78
2022-10-09T15:43:53.956Z,96645.97
2022-10-09T15:46:22.377Z,96637.38
2022-10-09T15:48:50.955Z,96634.66
2022-10-09T15:51:19.788Z,96627.41
2022-10-09T15:53:49.172Z,96631.13
2022-10-09T15:56:19.774Z,96626.69
2022-10-09T15:58:47.795Z,96629.47
2022-10-09T16:01:18.090Z,96638.00
2022-10-09T16:03:46.699Z,96634.09
2022-10-09T16:06:17.810Z,96635.16
2022-10-09T16:08:46.504Z,96634.94
2022-10-09T16:11:19.122Z,96634.94
2022-10-09T16:13:50.141Z,96633.63
2022-10-09T16:16:21.204Z,96625.06
2022-10-09T16:18:49.875Z,96619.06
2022-10-09T16:21:19.954Z,96623.06
2022-10-09T16:23:48.404Z,96611.63
2022-10-09T16:26:19.050Z,96614.81
2022-10-09T16:28:47.298Z,96604.63
2022-10-09T16:31:24.929Z,96611.25
2022-10-09T16:33:53.368Z,96616.38
2022-10-09T16:36:21.635Z,96607.06
2022-10-09T16:38:50.054Z,96608.69
2022-10-09T16:41:20.176Z,96603.38
2022-10-09T16:43:50.436Z,96606.13
2022-10-09T16:46:21.349Z,96607.53
2022-10-09T16:48:52.204Z,96607.34
2022-10-09T16:51:21.642Z,96607.19
2022-10-09T16:53:50.851Z,96608.38
2022-10-09T16:56:21.054Z,96606.47
2022-10-09T16:58:49.347Z,96608.75
2022-10-09T17:01:17.651Z,96605.69
2022-10-09T17:03:46.241Z,96603.19
2022-10-09T17:06:19.579Z,96599.06
2022-10-09T17:08:48.349Z,96593.25
2022-10-09T17:11:18.067Z,96583.88
2022-10-09T17:13:47.097Z,96583.84
2022-10-09T17:16:18.410Z,96584.91
2022-10-09T17:18:48.149Z,96581.78
2022-10-09T17:21:19.145Z,96575.91
2022-10-09T17:23:47.856Z,96583.91
2022-10-09T17:26:17.757Z,96577.72
2022-10-09T17:28:47.410Z,96585.34
2022-10-09T17:31:17.205Z,96588.56
2022-10-09T17:33:48.444Z,96585.66
2022-10-09T17:36:19.579Z,96585.47
2022-10-09T17:38:48.382Z,96587.53
2022-10-09T17:41:21.354Z,96583.34
2022-10-09T17:43:49.658Z,96583.19
2022-10-09T17:46:18.424Z,96584.25
2022-10-09T17:48:52.648Z,96582.44
2022-10-09T17:51:23.922Z,96574.03
2022-10-09T17:53:52.771Z,96572.50
2022-10-09T17:56:21.167Z,96578.28
2022-10-09T17:58:50.125Z,96585.75
2022-10-09T18:01:18.705Z,96587.44
2022-10-09T18:03:47.015Z,96587.88
2022-10-09T18:06:16.809Z,96589.78
2022-10-09T18:08:47.322Z,96583.94
2022-10-09T18:11:17.163Z,96588.97
2022-10-09T18:13:45.883Z,96583.31
2022-10-09T18:16:15.744Z,96584.09
2022-10-09T18:18:44.377Z,96573.56
2022-10-09T18:21:16.906Z,96577.84
2022-10-09T18:23:47.444Z,96570.56
2022-10-09T18:26:17.230Z,96573.91
2022-10-09T18:28:48.295Z,96571.84
2022-10-09T18:31:19.567Z,96573.53
2022-10-09T18:33:48.231Z,96570.31
2022-10-09T18:36:19.680Z,96571.75
2022-10-09T18:38:51.077Z,96562.97
2022-10-09T18:41:20.366Z,96567.16
2022-10-09T18:43:49.193Z,96566.34
2022-10-09T18:46:18.260Z,96561.28
2022-10-09T18:48:46.888Z,96557.31
2022-10-09T18:51:17.688Z,96554.81
2022-10-09T18:53:48.690Z,96553.22
2022-10-09T18:56:20.403Z,96539.47
2022-10-09T18:58:50.517Z,96543.88
2022-10-09T19:01:18.803Z,96540.41
2022-10-09T19:03:49.938Z,96539.19
2022-10-09T19:06:18.890Z,96541.75
2022-10-09T19:08:47.545Z,96535.06
2022-10-09T19:11:15.885Z,96534.56
2022-10-09T19:13:45.839Z,96540.09
2022-10-09T19:16:14.073Z,96538.13
2022-10-09T19:18:42.363Z,96541.38
2022-10-09T19:21:13.821Z,96536.84
2022-10-09T19:23:42.148Z,96539.59
2022-10-09T19:26:10.671Z,96535.25
2022-10-09T19:28:39.351Z,96537.97
2022-10-09T19:31:10.544Z,96528.00
2022-10-09T19:33:39.771Z,96527.94
2022-10-09T19:36:08.772Z,96530.75
2022-10-09T19:38:37.024Z,96532.28
2022-10-09T19:41:06.555Z,96530.03
2022-10-09T19:43:35.221Z,96525.34
2022-10-09T19:46:04.810Z,96524.16
2022-10-09T19:48:34.672Z,96529.78
2022-10-09T19:51:07.282Z,96521.56
2022-10-09T19:53:36.456Z,96527.94
2022-10-09T19:56:10.679Z,96520.66
2022-10-09T19:58:40.853Z,96525.19
2022-10-09T20:01:10.682Z,96529.53
2022-10-09T20:03:40.328Z,96528.34
2022-10-09T20:06:09.558Z,96522.34
2022-10-09T20:08:38.115Z,96531.16
2022-10-09T20:11:07.511Z,96518.41
2022-10-09T20:13:37.213Z,96525.34
2022-10-09T20:16:07.880Z,96519.72
2022-10-09T20:18:36.095Z,96521.72
2022-10-09T20:21:05.977Z,96516.97
2022-10-09T20:23:34.267Z,96517.06
2022-10-09T20:26:03.231Z,96514.03
2022-10-09T20:28:32.671Z,96516.38
2022-10-09T20:31:06.264Z,96512.47
2022-10-09T20:33:34.698Z,96506.38
2022-10-09T20:36:03.878Z,96515.50
2022-10-09T20:38:33.832Z,96510.94
2022-10-09T20:41:06.657Z,96515.13
2022-10-09T20:43:35.108Z,96509.97
2022-10-09T20:46:07.050Z,96499.31
2022-10-09T20:48:35.503Z,96501.13
2022-10-09T20:51:04.268Z,96498.91
2022-10-09T20:53:34.186Z,96490.16
2022-10-09T20:56:03.229Z,96492.06
2022-10-09T20:58:31.771Z,96492.59
2022-10-09T21:01:00.162Z,96495.75
2022-10-09T21:03:28.427Z,96491.41
2022-10-09T21:05:56.640Z,96499.41
2022-10-09T21:08:24.932Z,96482.31
2022-10-09T21:10:54.561Z,96484.03
2022-10-09T21:13:22.737Z,96481.28
2022-10-09T21:15:51.262Z,96489.28
2022-10-09T21:18:20.040Z,96487.16
2022-10-09T21:20:48.760Z,96485.41
2022-10-09T21:23:18.412Z,96490.66
2022-10-09T21:25:50.816Z,96480.31
2022-10-09T21:28:21.746Z,96486.66
2022-10-09T21:30:50.670Z,96484.06
2022-10-09T21:33:19.418Z,96485.38
2022-10-09T21:35:49.278Z,96480.47
2022-10-09T21:38:19.159Z,96485.16
2022-10-09T21:40:49.217Z,96481.72
2022-10-09T21:43:17.874Z,96484.09
2022-10-09T21:45:50.333Z,96473.88
2022-10-09T21:48:18.815Z,96487.03
2022-10-09T21:50:47.046Z,96489.50
2022-10-09T21:53:15.302Z,96487.19
2022-10-09T21:55:43.563Z,96481.63
2022-10-09T21:58:11.882Z,96480.56
2022-10-09T22:00:40.262Z,96483.78
2022-10-09T22:03:09.851Z,96480.00
2022-10-09T22:05:40.227Z,96479.78
2022-10-09T22:08:08.461Z,96480.22
2022-10-09T22:10:36.718Z,96486.53
2022-10-09T22:13:05.151Z,96487.22
2022-10-09T22:15:33.438Z,96478.56
2022-10-09T22:18:01.732Z,96484.09
2022-10-09T22:20:31.359Z,96481.41
2022-10-09T22:22:59.582Z,96489.50
2022-10-09T22:25:27.859Z,96485.44
2022-10-09T22:27:56.145Z,96491.56
2022-10-09T22:30:24.368Z,96487.47
2022-10-09T22:32:53.973Z,96491.13
2022-10-09T22:35:22.613Z,96490.25
2022-10-09T22:37:52.398Z,96488.31
2022-10-09T22:40:20.948Z,96498.34
2022-10-09T22:42:49.568Z,96498.13
2022-10-09T22:45:17.948Z,96491.09
2022-10-09T22:47:47.687Z,96494.19
2022-10-09T22:50:16.023Z,96492.78
2022-10-09T22:52:44.235Z,96491.97
2022-10-09T22:55:13.836Z,96497.88
2022-10-09T22:57:42.134Z,96493.66
2022-10-09T23:00:11.825Z,96490.94
2022-10-09T23:02:40.154Z,96485.19
2022-10-09T23:05:08.914Z,96483.38
2022-10-09T23:07:37.157Z,96482.25
2022-10-09T23:10:06.210Z,96483.88
2022-10-09T23:12:35.902Z,96491.84
2022-10-09T23:15:04.495Z,96492.50
2022-10-09T23:17:32.757Z,96495.31
2022-10-09T23:20:01.009Z,96493.44
2022-10-09T23:22:29.226Z,96493.88
2022-10-09T23:24:57.463Z,96498.47
2022-10-09T23:27:25.712Z,96495.97
2022-10-09T23:29:55.308Z,96497.31
2022-10-09T23:32:23.559Z,96496.41
2022-10-09T23:34:51.776Z,96505.06
2022-10-09T23:37:20.021Z,96498.16
2022-10-09T23:39:48.374Z,96497.09
2022-10-09T23:42:16.590Z,96494.97
2022-10-09T23:44:44.830Z,96496.94
2022-10-09T23:47:14.479Z,96501.34
2022-10-09T23:49:42.890Z,96498.22
2022-10-09T23:52:11.207Z,96499.78
2022-10-09T23:54:39.443Z,96499.78
2022-10-09T23:57:07.694Z,96488.03
2022-10-09T23:59:36.109Z,96500.25
